sensor_id;sensor_type;location;lat;lon;timestamp;temperature;humidity
39665;DHT22;26679;50.872;4.332;2022-09-01T00:00:19;21.30;85.70
39665;DHT22;26679;50.872;4.332;2022-09-01T00:02:55;21.30;85.40
39665;DHT22;26679;50.872;4.332;2022-09-01T00:05:21;21.30;85.40
39665;DHT22;26679;50.872;4.332;2022-09-01T00:07:47;21.20;85.60
39665;DHT22;26679;50.872;4.332;2022-09-01T00:10:13;21.10;85.90
39665;DHT22;26679;50.872;4.332;2022-09-01T00:12:38;21.10;85.70
39665;DHT22;26679;50.872;4.332;2022-09-01T00:15:04;21.10;85.70
39665;DHT22;26679;50.872;4.332;2022-09-01T00:17:31;21.10;85.50
39665;DHT22;26679;50.872;4.332;2022-09-01T00:19:57;21.10;85.50
39665;DHT22;26679;50.872;4.332;2022-09-01T00:22:22;21.10;85.40
39665;DHT22;26679;50.872;4.332;2022-09-01T00:24:48;21.20;85.30
39665;DHT22;26679;50.872;4.332;2022-09-01T00:27:13;21.20;84.90
39665;DHT22;26679;50.872;4.332;2022-09-01T00:29:39;21.30;84.90
39665;DHT22;26679;50.872;4.332;2022-09-01T00:32:04;21.30;84.80
39665;DHT22;26679;50.872;4.332;2022-09-01T00:34:30;21.20;84.70
39665;DHT22;26679;50.872;4.332;2022-09-01T00:36:55;21.10;84.80
39665;DHT22;26679;50.872;4.332;2022-09-01T00:39:21;21.10;84.80
39665;DHT22;26679;50.872;4.332;2022-09-01T00:41:46;20.90;84.90
39665;DHT22;26679;50.872;4.332;2022-09-01T00:44:15;20.80;85.50
39665;DHT22;26679;50.872;4.332;2022-09-01T00:46:42;20.80;85.60
39665;DHT22;26679;50.872;4.332;2022-09-01T00:49:10;20.70;85.50
39665;DHT22;26679;50.872;4.332;2022-09-01T00:51:36;20.60;85.40
39665;DHT22;26679;50.872;4.332;2022-09-01T00:54:03;20.70;85.50
39665;DHT22;26679;50.872;4.332;2022-09-01T00:56:29;20.80;85.30
39665;DHT22;26679;50.872;4.332;2022-09-01T00:58:56;20.80;85.20
39665;DHT22;26679;50.872;4.332;2022-09-01T01:01:21;20.70;84.90
39665;DHT22;26679;50.872;4.332;2022-09-01T01:03:48;20.70;85.10
39665;DHT22;26679;50.872;4.332;2022-09-01T01:06:14;20.70;84.90
39665;DHT22;26679;50.872;4.332;2022-09-01T01:08:41;20.70;84.70
39665;DHT22;26679;50.872;4.332;2022-09-01T01:11:22;20.70;84.60
39665;DHT22;26679;50.872;4.332;2022-09-01T01:13:53;20.70;84.60
39665;DHT22;26679;50.872;4.332;2022-09-01T01:16:20;20.60;84.70
39665;DHT22;26679;50.872;4.332;2022-09-01T01:18:46;20.60;84.70
39665;DHT22;26679;50.872;4.332;2022-09-01T01:21:14;20.50;84.50
39665;DHT22;26679;50.872;4.332;2022-09-01T01:24:03;20.50;84.50
39665;DHT22;26679;50.872;4.332;2022-09-01T01:26:30;20.40;84.80
39665;DHT22;26679;50.872;4.332;2022-09-01T01:28:56;20.40;84.90
39665;DHT22;26679;50.872;4.332;2022-09-01T01:31:21;20.30;84.50
39665;DHT22;26679;50.872;4.332;2022-09-01T01:33:52;20.30;84.80
39665;DHT22;26679;50.872;4.332;2022-09-01T01:36:20;20.20;84.80
39665;DHT22;26679;50.872;4.332;2022-09-01T01:38:55;19.90;85.40
39665;DHT22;26679;50.872;4.332;2022-09-01T01:41:27;19.80;86.00
39665;DHT22;26679;50.872;4.332;2022-09-01T01:43:58;19.90;85.90
39665;DHT22;26679;50.872;4.332;2022-09-01T01:46:24;20.00;85.90
39665;DHT22;26679;50.872;4.332;2022-09-01T01:48:50;20.10;85.90
39665;DHT22;26679;50.872;4.332;2022-09-01T01:51:17;20.00;86.00
39665;DHT22;26679;50.872;4.332;2022-09-01T01:53:44;19.90;86.30
39665;DHT22;26679;50.872;4.332;2022-09-01T01:56:11;19.90;86.40
39665;DHT22;26679;50.872;4.332;2022-09-01T01:58:37;19.90;86.50
39665;DHT22;26679;50.872;4.332;2022-09-01T02:01:04;19.80;86.10
39665;DHT22;26679;50.872;4.332;2022-09-01T02:03:36;19.90;86.30
39665;DHT22;26679;50.872;4.332;2022-09-01T02:06:04;19.90;86.00
39665;DHT22;26679;50.872;4.332;2022-09-01T02:08:31;19.80;86.00
39665;DHT22;26679;50.872;4.332;2022-09-01T02:10:58;19.80;86.20
39665;DHT22;26679;50.872;4.332;2022-09-01T02:13:24;19.80;86.30
39665;DHT22;26679;50.872;4.332;2022-09-01T02:15:53;19.70;86.00
39665;DHT22;26679;50.872;4.332;2022-09-01T02:18:20;19.80;86.20
39665;DHT22;26679;50.872;4.332;2022-09-01T02:20:48;19.90;86.00
39665;DHT22;26679;50.872;4.332;2022-09-01T02:23:15;19.80;86.00
39665;DHT22;26679;50.872;4.332;2022-09-01T02:25:43;19.90;85.50
39665;DHT22;26679;50.872;4.332;2022-09-01T02:28:12;19.90;85.00
39665;DHT22;26679;50.872;4.332;2022-09-01T02:30:42;20.00;85.10
39665;DHT22;26679;50.872;4.332;2022-09-01T02:33:09;20.00;84.90
39665;DHT22;26679;50.872;4.332;2022-09-01T02:35:35;19.90;84.60
39665;DHT22;26679;50.872;4.332;2022-09-01T02:38:03;19.80;84.50
39665;DHT22;26679;50.872;4.332;2022-09-01T02:40:29;19.70;85.20
39665;DHT22;26679;50.872;4.332;2022-09-01T02:42:56;19.70;85.00
39665;DHT22;26679;50.872;4.332;2022-09-01T02:45:23;19.80;84.90
39665;DHT22;26679;50.872;4.332;2022-09-01T02:47:49;19.80;84.70
39665;DHT22;26679;50.872;4.332;2022-09-01T02:50:15;19.80;84.70
39665;DHT22;26679;50.872;4.332;2022-09-01T02:52:43;19.90;84.60
39665;DHT22;26679;50.872;4.332;2022-09-01T02:55:09;19.80;84.60
39665;DHT22;26679;50.872;4.332;2022-09-01T02:57:36;19.80;84.70
39665;DHT22;26679;50.872;4.332;2022-09-01T03:00:03;19.80;84.40
39665;DHT22;26679;50.872;4.332;2022-09-01T03:02:29;19.80;84.30
39665;DHT22;26679;50.872;4.332;2022-09-01T03:04:55;20.00;84.00
39665;DHT22;26679;50.872;4.332;2022-09-01T03:07:21;19.90;83.90
39665;DHT22;26679;50.872;4.332;2022-09-01T03:09:48;19.80;84.00
39665;DHT22;26679;50.872;4.332;2022-09-01T03:12:14;19.70;84.20
39665;DHT22;26679;50.872;4.332;2022-09-01T03:14:39;19.60;84.90
39665;DHT22;26679;50.872;4.332;2022-09-01T03:17:05;19.50;84.90
39665;DHT22;26679;50.872;4.332;2022-09-01T03:19:30;19.50;85.00
39665;DHT22;26679;50.872;4.332;2022-09-01T03:22:04;19.40;85.00
39665;DHT22;26679;50.872;4.332;2022-09-01T03:24:29;19.40;85.20
39665;DHT22;26679;50.872;4.332;2022-09-01T03:26:56;19.50;85.00
39665;DHT22;26679;50.872;4.332;2022-09-01T03:29:21;19.50;84.90
39665;DHT22;26679;50.872;4.332;2022-09-01T03:31:47;19.50;85.00
39665;DHT22;26679;50.872;4.332;2022-09-01T03:34:12;19.60;84.90
39665;DHT22;26679;50.872;4.332;2022-09-01T03:36:40;19.60;85.00
39665;DHT22;26679;50.872;4.332;2022-09-01T03:39:14;19.40;85.20
39665;DHT22;26679;50.872;4.332;2022-09-01T03:41:40;19.30;85.50
39665;DHT22;26679;50.872;4.332;2022-09-01T03:44:06;19.30;85.70
39665;DHT22;26679;50.872;4.332;2022-09-01T03:46:38;19.30;85.70
39665;DHT22;26679;50.872;4.332;2022-09-01T03:49:04;19.30;85.80
39665;DHT22;26679;50.872;4.332;2022-09-01T03:51:32;19.30;85.90
39665;DHT22;26679;50.872;4.332;2022-09-01T03:53:57;19.20;85.80
39665;DHT22;26679;50.872;4.332;2022-09-01T03:56:24;19.20;85.80
39665;DHT22;26679;50.872;4.332;2022-09-01T03:58:52;19.30;85.80
39665;DHT22;26679;50.872;4.332;2022-09-01T04:01:17;19.30;85.80
39665;DHT22;26679;50.872;4.332;2022-09-01T04:03:43;19.20;86.10
39665;DHT22;26679;50.872;4.332;2022-09-01T04:06:11;19.10;86.30
39665;DHT22;26679;50.872;4.332;2022-09-01T04:08:38;19.10;86.50
39665;DHT22;26679;50.872;4.332;2022-09-01T04:11:09;19.00;86.90
39665;DHT22;26679;50.872;4.332;2022-09-01T04:13:36;19.00;87.30
39665;DHT22;26679;50.872;4.332;2022-09-01T04:16:02;19.10;86.70
39665;DHT22;26679;50.872;4.332;2022-09-01T04:18:27;19.10;86.50
39665;DHT22;26679;50.872;4.332;2022-09-01T04:20:57;19.10;86.50
39665;DHT22;26679;50.872;4.332;2022-09-01T04:23:25;19.10;86.40
39665;DHT22;26679;50.872;4.332;2022-09-01T04:25:58;19.10;86.50
39665;DHT22;26679;50.872;4.332;2022-09-01T04:28:25;19.10;86.60
39665;DHT22;26679;50.872;4.332;2022-09-01T04:30:51;19.10;86.60
39665;DHT22;26679;50.872;4.332;2022-09-01T04:33:19;19.10;86.70
39665;DHT22;26679;50.872;4.332;2022-09-01T04:35:46;19.10;86.70
39665;DHT22;26679;50.872;4.332;2022-09-01T04:38:12;19.10;86.90
39665;DHT22;26679;50.872;4.332;2022-09-01T04:40:40;19.10;87.10
39665;DHT22;26679;50.872;4.332;2022-09-01T04:43:06;19.00;87.00
39665;DHT22;26679;50.872;4.332;2022-09-01T04:45:33;19.10;86.90
39665;DHT22;26679;50.872;4.332;2022-09-01T04:48:01;19.00;87.10
39665;DHT22;26679;50.872;4.332;2022-09-01T04:50:27;19.00;87.00
39665;DHT22;26679;50.872;4.332;2022-09-01T04:52:58;19.00;87.10
39665;DHT22;26679;50.872;4.332;2022-09-01T04:55:27;19.00;87.20
39665;DHT22;26679;50.872;4.332;2022-09-01T04:57:55;18.90;87.60
39665;DHT22;26679;50.872;4.332;2022-09-01T05:00:22;18.80;87.60
39665;DHT22;26679;50.872;4.332;2022-09-01T05:02:48;18.80;87.60
39665;DHT22;26679;50.872;4.332;2022-09-01T05:05:16;18.80;87.90
39665;DHT22;26679;50.872;4.332;2022-09-01T05:07:42;18.70;88.20
39665;DHT22;26679;50.872;4.332;2022-09-01T05:10:07;18.60;88.40
39665;DHT22;26679;50.872;4.332;2022-09-01T05:12:33;18.60;88.30
39665;DHT22;26679;50.872;4.332;2022-09-01T05:15:00;18.70;88.40
39665;DHT22;26679;50.872;4.332;2022-09-01T05:17:26;18.70;88.40
39665;DHT22;26679;50.872;4.332;2022-09-01T05:19:53;19.70;89.10
39665;DHT22;26679;50.872;4.332;2022-09-01T05:22:20;18.70;88.40
39665;DHT22;26679;50.872;4.332;2022-09-01T05:24:47;18.70;88.40
39665;DHT22;26679;50.872;4.332;2022-09-01T05:27:15;18.80;88.30
39665;DHT22;26679;50.872;4.332;2022-09-01T05:29:42;18.90;88.30
39665;DHT22;26679;50.872;4.332;2022-09-01T05:32:10;18.90;88.20
39665;DHT22;26679;50.872;4.332;2022-09-01T05:34:37;18.90;88.30
39665;DHT22;26679;50.872;4.332;2022-09-01T05:37:04;18.90;88.50
39665;DHT22;26679;50.872;4.332;2022-09-01T05:39:31;18.90;88.30
39665;DHT22;26679;50.872;4.332;2022-09-01T05:41:59;18.90;88.20
39665;DHT22;26679;50.872;4.332;2022-09-01T05:44:25;19.00;88.40
39665;DHT22;26679;50.872;4.332;2022-09-01T05:46:51;19.00;88.40
39665;DHT22;26679;50.872;4.332;2022-09-01T05:49:17;19.00;88.40
39665;DHT22;26679;50.872;4.332;2022-09-01T05:51:48;18.90;88.80
39665;DHT22;26679;50.872;4.332;2022-09-01T05:54:14;18.90;89.00
39665;DHT22;26679;50.872;4.332;2022-09-01T05:56:40;19.00;89.10
39665;DHT22;26679;50.872;4.332;2022-09-01T05:59:07;18.90;89.10
39665;DHT22;26679;50.872;4.332;2022-09-01T06:01:32;18.90;89.60
39665;DHT22;26679;50.872;4.332;2022-09-01T06:03:59;18.80;89.60
39665;DHT22;26679;50.872;4.332;2022-09-01T06:06:29;18.80;89.90
39665;DHT22;26679;50.872;4.332;2022-09-01T06:08:57;18.80;89.90
39665;DHT22;26679;50.872;4.332;2022-09-01T06:11:23;18.80;89.80
39665;DHT22;26679;50.872;4.332;2022-09-01T06:13:51;18.90;89.80
39665;DHT22;26679;50.872;4.332;2022-09-01T06:16:16;18.90;90.20
39665;DHT22;26679;50.872;4.332;2022-09-01T06:18:43;19.00;89.90
39665;DHT22;26679;50.872;4.332;2022-09-01T06:21:10;19.10;89.90
39665;DHT22;26679;50.872;4.332;2022-09-01T06:23:42;19.10;90.00
39665;DHT22;26679;50.872;4.332;2022-09-01T06:26:18;19.10;90.00
39665;DHT22;26679;50.872;4.332;2022-09-01T06:28:44;19.00;90.20
39665;DHT22;26679;50.872;4.332;2022-09-01T06:31:10;19.00;90.20
39665;DHT22;26679;50.872;4.332;2022-09-01T06:33:36;18.90;90.60
39665;DHT22;26679;50.872;4.332;2022-09-01T06:36:03;18.80;90.60
39665;DHT22;26679;50.872;4.332;2022-09-01T06:38:29;18.80;90.70
39665;DHT22;26679;50.872;4.332;2022-09-01T06:40:59;18.70;90.80
39665;DHT22;26679;50.872;4.332;2022-09-01T06:43:25;18.70;91.00
39665;DHT22;26679;50.872;4.332;2022-09-01T06:45:54;18.90;90.90
39665;DHT22;26679;50.872;4.332;2022-09-01T06:48:20;19.00;90.70
39665;DHT22;26679;50.872;4.332;2022-09-01T06:50:48;19.20;90.60
39665;DHT22;26679;50.872;4.332;2022-09-01T06:53:13;19.30;90.50
39665;DHT22;26679;50.872;4.332;2022-09-01T06:55:43;19.40;90.30
39665;DHT22;26679;50.872;4.332;2022-09-01T06:58:11;19.50;90.20
39665;DHT22;26679;50.872;4.332;2022-09-01T07:00:40;19.60;90.20
39665;DHT22;26679;50.872;4.332;2022-09-01T07:03:09;19.70;90.10
39665;DHT22;26679;50.872;4.332;2022-09-01T07:05:42;19.50;90.30
39665;DHT22;26679;50.872;4.332;2022-09-01T07:08:10;19.50;90.50
39665;DHT22;26679;50.872;4.332;2022-09-01T07:10:47;19.50;90.50
39665;DHT22;26679;50.872;4.332;2022-09-01T07:13:17;19.20;90.90
39665;DHT22;26679;50.872;4.332;2022-09-01T07:15:47;19.20;91.10
39665;DHT22;26679;50.872;4.332;2022-09-01T07:18:14;19.30;91.00
39665;DHT22;26679;50.872;4.332;2022-09-01T07:20:41;19.40;91.00
39665;DHT22;26679;50.872;4.332;2022-09-01T07:23:07;19.80;91.00
39665;DHT22;26679;50.872;4.332;2022-09-01T07:25:33;20.30;90.10
39665;DHT22;26679;50.872;4.332;2022-09-01T07:28:02;20.40;89.70
39665;DHT22;26679;50.872;4.332;2022-09-01T07:30:27;20.40;89.70
39665;DHT22;26679;50.872;4.332;2022-09-01T07:32:54;20.60;89.50
39665;DHT22;26679;50.872;4.332;2022-09-01T07:35:20;20.70;89.10
39665;DHT22;26679;50.872;4.332;2022-09-01T07:37:46;20.80;88.80
39665;DHT22;26679;50.872;4.332;2022-09-01T07:40:14;21.00;88.50
39665;DHT22;26679;50.872;4.332;2022-09-01T07:42:43;21.00;88.20
39665;DHT22;26679;50.872;4.332;2022-09-01T07:45:11;21.00;88.30
39665;DHT22;26679;50.872;4.332;2022-09-01T07:47:38;21.10;88.30
39665;DHT22;26679;50.872;4.332;2022-09-01T07:50:04;21.10;87.90
39665;DHT22;26679;50.872;4.332;2022-09-01T07:52:36;21.10;88.20
39665;DHT22;26679;50.872;4.332;2022-09-01T07:55:08;21.10;88.30
39665;DHT22;26679;50.872;4.332;2022-09-01T07:57:35;21.00;88.40
39665;DHT22;26679;50.872;4.332;2022-09-01T08:00:01;21.00;88.60
39665;DHT22;26679;50.872;4.332;2022-09-01T08:02:26;20.60;89.60
39665;DHT22;26679;50.872;4.332;2022-09-01T08:04:52;20.40;90.20
39665;DHT22;26679;50.872;4.332;2022-09-01T08:07:18;20.40;90.30
39665;DHT22;26679;50.872;4.332;2022-09-01T08:09:44;20.40;90.20
39665;DHT22;26679;50.872;4.332;2022-09-01T08:12:10;20.70;90.20
39665;DHT22;26679;50.872;4.332;2022-09-01T08:14:36;20.90;89.60
39665;DHT22;26679;50.872;4.332;2022-09-01T08:17:01;21.10;89.00
39665;DHT22;26679;50.872;4.332;2022-09-01T08:19:27;21.20;88.50
39665;DHT22;26679;50.872;4.332;2022-09-01T08:21:53;21.30;88.50
39665;DHT22;26679;50.872;4.332;2022-09-01T08:24:18;21.40;88.00
39665;DHT22;26679;50.872;4.332;2022-09-01T08:26:44;21.50;87.60
39665;DHT22;26679;50.872;4.332;2022-09-01T08:29:11;21.50;87.50
39665;DHT22;26679;50.872;4.332;2022-09-01T08:31:36;21.50;87.50
39665;DHT22;26679;50.872;4.332;2022-09-01T08:34:03;21.30;87.90
39665;DHT22;26679;50.872;4.332;2022-09-01T08:36:31;21.10;88.60
39665;DHT22;26679;50.872;4.332;2022-09-01T08:38:57;21.00;89.10
39665;DHT22;26679;50.872;4.332;2022-09-01T08:41:30;21.10;89.10
39665;DHT22;26679;50.872;4.332;2022-09-01T08:46:31;21.40;88.20
39665;DHT22;26679;50.872;4.332;2022-09-01T08:49:00;21.50;88.10
39665;DHT22;26679;50.872;4.332;2022-09-01T08:51:29;21.70;87.90
39665;DHT22;26679;50.872;4.332;2022-09-01T08:56:50;22.10;86.70
39665;DHT22;26679;50.872;4.332;2022-09-01T08:59:17;22.30;85.70
39665;DHT22;26679;50.872;4.332;2022-09-01T09:09:29;26.60;77.50
39665;DHT22;26679;50.872;4.332;2022-09-01T09:11:59;27.10;75.90
39665;DHT22;26679;50.872;4.332;2022-09-01T09:14:36;27.80;74.80
39665;DHT22;26679;50.872;4.332;2022-09-01T09:17:07;28.10;73.30
39665;DHT22;26679;50.872;4.332;2022-09-01T09:19:40;28.60;72.60
39665;DHT22;26679;50.872;4.332;2022-09-01T09:22:07;28.50;72.50
39665;DHT22;26679;50.872;4.332;2022-09-01T09:24:36;29.50;72.20
39665;DHT22;26679;50.872;4.332;2022-09-01T09:27:22;29.80;70.60
39665;DHT22;26679;50.872;4.332;2022-09-01T09:29:51;29.90;70.50
39665;DHT22;26679;50.872;4.332;2022-09-01T09:32:18;29.20;70.60
39665;DHT22;26679;50.872;4.332;2022-09-01T09:34:43;27.90;72.40
39665;DHT22;26679;50.872;4.332;2022-09-01T09:37:16;27.10;74.10
39665;DHT22;26679;50.872;4.332;2022-09-01T09:39:43;27.90;73.00
39665;DHT22;26679;50.872;4.332;2022-09-01T09:42:10;28.30;72.70
39665;DHT22;26679;50.872;4.332;2022-09-01T09:44:55;29.10;71.70
39665;DHT22;26679;50.872;4.332;2022-09-01T09:50:09;30.60;69.10
39665;DHT22;26679;50.872;4.332;2022-09-01T09:52:35;29.90;69.90
39665;DHT22;26679;50.872;4.332;2022-09-01T09:57:28;31.00;68.40
39665;DHT22;26679;50.872;4.332;2022-09-01T10:00:03;31.00;67.90
39665;DHT22;26679;50.872;4.332;2022-09-01T10:04:56;32.40;67.30
39665;DHT22;26679;50.872;4.332;2022-09-01T10:07:30;31.50;65.70
39665;DHT22;26679;50.872;4.332;2022-09-01T10:09:58;32.10;65.80
39665;DHT22;26679;50.872;4.332;2022-09-01T10:12:25;32.20;64.80
39665;DHT22;26679;50.872;4.332;2022-09-01T10:14:56;32.20;65.20
39665;DHT22;26679;50.872;4.332;2022-09-01T10:17:24;33.10;64.40
39665;DHT22;26679;50.872;4.332;2022-09-01T10:19:56;33.40;63.40
39665;DHT22;26679;50.872;4.332;2022-09-01T10:22:23;33.60;62.90
39665;DHT22;26679;50.872;4.332;2022-09-01T10:24:49;32.80;63.00
39665;DHT22;26679;50.872;4.332;2022-09-01T10:27:19;31.80;63.20
39665;DHT22;26679;50.872;4.332;2022-09-01T10:32:27;30.80;63.50
39665;DHT22;26679;50.872;4.332;2022-09-01T10:34:53;31.30;63.50
39665;DHT22;26679;50.872;4.332;2022-09-01T10:37:19;31.70;63.00
39665;DHT22;26679;50.872;4.332;2022-09-01T10:42:25;32.20;62.70
39665;DHT22;26679;50.872;4.332;2022-09-01T10:44:55;32.90;61.90
39665;DHT22;26679;50.872;4.332;2022-09-01T10:47:25;32.20;62.30
39665;DHT22;26679;50.872;4.332;2022-09-01T10:54:56;32.60;61.40
39665;DHT22;26679;50.872;4.332;2022-09-01T10:59:49;33.50;60.70
39665;DHT22;26679;50.872;4.332;2022-09-01T11:02:18;33.60;60.20
39665;DHT22;26679;50.872;4.332;2022-09-01T11:14:59;34.20;60.00
39665;DHT22;26679;50.872;4.332;2022-09-01T11:17:26;35.00;59.10
39665;DHT22;26679;50.872;4.332;2022-09-01T11:22:23;34.90;59.10
39665;DHT22;26679;50.872;4.332;2022-09-01T11:24:51;35.50;59.10
39665;DHT22;26679;50.872;4.332;2022-09-01T11:32:20;34.70;58.60
39665;DHT22;26679;50.872;4.332;2022-09-01T11:34:47;35.40;58.10
39665;DHT22;26679;50.872;4.332;2022-09-01T11:37:15;35.10;57.50
39665;DHT22;26679;50.872;4.332;2022-09-01T11:39:41;34.90;57.60
39665;DHT22;26679;50.872;4.332;2022-09-01T11:44:43;37.10;56.60
39665;DHT22;26679;50.872;4.332;2022-09-01T11:47:12;37.40;56.10
39665;DHT22;26679;50.872;4.332;2022-09-01T11:49:51;37.20;55.80
39665;DHT22;26679;50.872;4.332;2022-09-01T11:52:17;35.90;56.00
39665;DHT22;26679;50.872;4.332;2022-09-01T11:54:44;36.10;56.10
39665;DHT22;26679;50.872;4.332;2022-09-01T11:59:47;36.60;55.90
39665;DHT22;26679;50.872;4.332;2022-09-01T12:02:34;37.30;55.50
39665;DHT22;26679;50.872;4.332;2022-09-01T12:04:59;37.80;55.20
39665;DHT22;26679;50.872;4.332;2022-09-01T12:09:53;37.80;55.30
39665;DHT22;26679;50.872;4.332;2022-09-01T12:14:58;37.40;55.10
39665;DHT22;26679;50.872;4.332;2022-09-01T12:17:24;37.30;55.00
39665;DHT22;26679;50.872;4.332;2022-09-01T12:19:49;37.70;55.20
39665;DHT22;26679;50.872;4.332;2022-09-01T12:22:19;38.00;54.90
39665;DHT22;26679;50.872;4.332;2022-09-01T12:24:46;38.20;54.70
39665;DHT22;26679;50.872;4.332;2022-09-01T12:27:12;38.10;54.60
39665;DHT22;26679;50.872;4.332;2022-09-01T12:29:38;36.60;55.00
39665;DHT22;26679;50.872;4.332;2022-09-01T12:32:04;36.20;55.80
39665;DHT22;26679;50.872;4.332;2022-09-01T12:37:40;34.80;57.50
39665;DHT22;26679;50.872;4.332;2022-09-01T12:39:48;35.90;56.70
39665;DHT22;26679;50.872;4.332;2022-09-01T12:44:44;37.80;55.20
39665;DHT22;26679;50.872;4.332;2022-09-01T12:49:57;38.30;54.60
39665;DHT22;26679;50.872;4.332;2022-09-01T12:52:24;37.60;54.40
39665;DHT22;26679;50.872;4.332;2022-09-01T12:57:25;35.90;55.90
39665;DHT22;26679;50.872;4.332;2022-09-01T13:02:33;36.50;55.20
39665;DHT22;26679;50.872;4.332;2022-09-01T13:07:35;35.90;55.60
39665;DHT22;26679;50.872;4.332;2022-09-01T13:10:00;35.20;56.00
39665;DHT22;26679;50.872;4.332;2022-09-01T13:12:26;35.20;56.40
39665;DHT22;26679;50.872;4.332;2022-09-01T13:14:51;36.20;56.20
39665;DHT22;26679;50.872;4.332;2022-09-01T13:17:17;36.90;55.50
39665;DHT22;26679;50.872;4.332;2022-09-01T13:19:43;37.30;55.00
39665;DHT22;26679;50.872;4.332;2022-09-01T13:22:09;36.80;55.00
39665;DHT22;26679;50.872;4.332;2022-09-01T13:24:35;36.90;55.50
39665;DHT22;26679;50.872;4.332;2022-09-01T13:27:00;37.30;55.40
39665;DHT22;26679;50.872;4.332;2022-09-01T13:29:26;37.20;55.00
39665;DHT22;26679;50.872;4.332;2022-09-01T13:31:51;36.90;54.80
39665;DHT22;26679;50.872;4.332;2022-09-01T13:34:17;36.80;55.20
39665;DHT22;26679;50.872;4.332;2022-09-01T13:36:42;35.60;55.40
39665;DHT22;26679;50.872;4.332;2022-09-01T13:39:08;34.20;56.50
39665;DHT22;26679;50.872;4.332;2022-09-01T13:41:33;34.70;56.60
39665;DHT22;26679;50.872;4.332;2022-09-01T13:43:58;33.70;57.20
39665;DHT22;26679;50.872;4.332;2022-09-01T13:46:25;34.20;57.00
39665;DHT22;26679;50.872;4.332;2022-09-01T13:48:50;34.60;56.50
39665;DHT22;26679;50.872;4.332;2022-09-01T13:53:52;34.10;56.90
39665;DHT22;26679;50.872;4.332;2022-09-01T13:56:18;34.80;56.50
39665;DHT22;26679;50.872;4.332;2022-09-01T13:58:43;35.10;55.90
39665;DHT22;26679;50.872;4.332;2022-09-01T14:01:09;35.70;55.60
39665;DHT22;26679;50.872;4.332;2022-09-01T14:03:34;35.30;55.90
39665;DHT22;26679;50.872;4.332;2022-09-01T14:06:00;36.20;55.50
39665;DHT22;26679;50.872;4.332;2022-09-01T14:08:25;36.70;55.30
39665;DHT22;26679;50.872;4.332;2022-09-01T14:10:51;37.10;54.90
39665;DHT22;26679;50.872;4.332;2022-09-01T14:13:18;37.50;54.80
39665;DHT22;26679;50.872;4.332;2022-09-01T14:15:44;37.80;54.40
39665;DHT22;26679;50.872;4.332;2022-09-01T14:18:11;37.90;54.20
39665;DHT22;26679;50.872;4.332;2022-09-01T14:20:38;37.70;54.10
39665;DHT22;26679;50.872;4.332;2022-09-01T14:23:07;36.20;54.60
39665;DHT22;26679;50.872;4.332;2022-09-01T14:25:34;35.90;55.50
39665;DHT22;26679;50.872;4.332;2022-09-01T14:28:00;34.70;55.50
39665;DHT22;26679;50.872;4.332;2022-09-01T14:30:27;33.50;57.00
39665;DHT22;26679;50.872;4.332;2022-09-01T14:32:52;33.90;56.40
39665;DHT22;26679;50.872;4.332;2022-09-01T14:35:19;34.90;56.40
39665;DHT22;26679;50.872;4.332;2022-09-01T14:37:45;35.50;55.20
39665;DHT22;26679;50.872;4.332;2022-09-01T14:40:12;35.30;55.00
39665;DHT22;26679;50.872;4.332;2022-09-01T14:42:40;35.40;55.30
39665;DHT22;26679;50.872;4.332;2022-09-01T14:45:08;36.30;54.60
39665;DHT22;26679;50.872;4.332;2022-09-01T14:47:36;36.80;54.30
39665;DHT22;26679;50.872;4.332;2022-09-01T14:50:01;36.40;54.10
39665;DHT22;26679;50.872;4.332;2022-09-01T14:52:29;36.40;54.40
39665;DHT22;26679;50.872;4.332;2022-09-01T14:54:54;35.70;54.40
39665;DHT22;26679;50.872;4.332;2022-09-01T14:57:20;33.70;55.60
39665;DHT22;26679;50.872;4.332;2022-09-01T14:59:45;33.20;56.60
39665;DHT22;26679;50.872;4.332;2022-09-01T15:02:12;34.20;56.10
39665;DHT22;26679;50.872;4.332;2022-09-01T15:04:38;34.80;55.60
39665;DHT22;26679;50.872;4.332;2022-09-01T15:07:03;34.70;55.40
39665;DHT22;26679;50.872;4.332;2022-09-01T15:09:31;34.30;55.40
39665;DHT22;26679;50.872;4.332;2022-09-01T15:11:56;33.80;55.70
39665;DHT22;26679;50.872;4.332;2022-09-01T15:14:22;32.80;56.10
39665;DHT22;26679;50.872;4.332;2022-09-01T15:16:48;33.80;56.30
39665;DHT22;26679;50.872;4.332;2022-09-01T15:19:13;34.00;55.60
39665;DHT22;26679;50.872;4.332;2022-09-01T15:21:40;34.00;55.20
39665;DHT22;26679;50.872;4.332;2022-09-01T15:24:06;32.90;56.00
39665;DHT22;26679;50.872;4.332;2022-09-01T15:26:32;33.50;56.00
39665;DHT22;26679;50.872;4.332;2022-09-01T15:28:58;33.10;55.90
39665;DHT22;26679;50.872;4.332;2022-09-01T15:31:24;33.40;55.70
39665;DHT22;26679;50.872;4.332;2022-09-01T15:33:54;34.30;55.60
39665;DHT22;26679;50.872;4.332;2022-09-01T15:36:22;35.30;54.80
39665;DHT22;26679;50.872;4.332;2022-09-01T15:38:48;36.00;54.20
39665;DHT22;26679;50.872;4.332;2022-09-01T15:41:17;36.30;53.90
39665;DHT22;26679;50.872;4.332;2022-09-01T15:43:43;36.60;53.60
39665;DHT22;26679;50.872;4.332;2022-09-01T15:46:08;36.30;53.40
39665;DHT22;26679;50.872;4.332;2022-09-01T15:48:36;35.80;53.10
39665;DHT22;26679;50.872;4.332;2022-09-01T15:53:40;34.30;53.90
39665;DHT22;26679;50.872;4.332;2022-09-01T15:56:05;34.30;54.30
39665;DHT22;26679;50.872;4.332;2022-09-01T15:58:31;34.40;54.00
39665;DHT22;26679;50.872;4.332;2022-09-01T16:00:58;34.40;53.80
39665;DHT22;26679;50.872;4.332;2022-09-01T16:03:25;35.00;54.00
39665;DHT22;26679;50.872;4.332;2022-09-01T16:05:51;35.60;53.60
39665;DHT22;26679;50.872;4.332;2022-09-01T16:08:16;35.70;53.30
39665;DHT22;26679;50.872;4.332;2022-09-01T16:10:43;35.80;53.00
39665;DHT22;26679;50.872;4.332;2022-09-01T16:13:09;35.30;53.20
39665;DHT22;26679;50.872;4.332;2022-09-01T16:15:36;35.50;53.20
39665;DHT22;26679;50.872;4.332;2022-09-01T16:20:36;36.00;53.10
39665;DHT22;26679;50.872;4.332;2022-09-01T16:25:39;35.80;52.80
39665;DHT22;26679;50.872;4.332;2022-09-01T16:30:41;33.80;53.50
39665;DHT22;26679;50.872;4.332;2022-09-01T16:33:09;33.60;54.00
39665;DHT22;26679;50.872;4.332;2022-09-01T16:48:24;32.30;54.50
39665;DHT22;26679;50.872;4.332;2022-09-01T16:53:25;31.60;55.60
39665;DHT22;26679;50.872;4.332;2022-09-01T16:58:25;30.60;56.70
39665;DHT22;26679;50.872;4.332;2022-09-01T17:03:29;31.00;56.30
39665;DHT22;26679;50.872;4.332;2022-09-01T17:06:09;30.60;56.40
39665;DHT22;26679;50.872;4.332;2022-09-01T17:08:48;30.30;56.80
39665;DHT22;26679;50.872;4.332;2022-09-01T17:11:24;30.10;57.20
39665;DHT22;26679;50.872;4.332;2022-09-01T17:13:51;30.10;57.10
39665;DHT22;26679;50.872;4.332;2022-09-01T17:16:20;29.80;57.20
39665;DHT22;26679;50.872;4.332;2022-09-01T17:26:20;29.20;57.70
39665;DHT22;26679;50.872;4.332;2022-09-01T17:28:59;29.00;57.90